sensor_id;sensor_type;location;lat;lon;timestamp;P1;durP1;ratioP1;P2;durP2;ratioP2
56667;SDS011;42542;48.360;10.958;2022-07-04T00:00:18;9.40;;;4.43;;
56667;SDS011;42542;48.360;10.958;2022-07-04T00:03:30;8.07;;;3.83;;
56667;SDS011;42542;48.360;10.958;2022-07-04T00:06:47;8.35;;;3.70;;
56667;SDS011;42542;48.360;10.958;2022-07-04T00:10:05;8.98;;;3.70;;
56667;SDS011;42542;48.360;10.958;2022-07-04T00:13:25;7.40;;;3.70;;
56667;SDS011;42542;48.360;10.958;2022-07-04T00:16:37;8.07;;;3.70;;
56667;SDS011;42542;48.360;10.958;2022-07-04T00:19:39;7.65;;;3.72;;
56667;SDS011;42542;48.360;10.958;2022-07-04T00:22:41;7.18;;;3.58;;
56667;SDS011;42542;48.360;10.958;2022-07-04T00:25:42;8.05;;;3.70;;
56667;SDS011;42542;48.360;10.958;2022-07-04T00:28:44;12.47;;;3.70;;
56667;SDS011;42542;48.360;10.958;2022-07-04T00:31:46;6.67;;;3.60;;
56667;SDS011;42542;48.360;10.958;2022-07-04T00:34:48;9.23;;;3.63;;
56667;SDS011;42542;48.360;10.958;2022-07-04T00:37:50;6.45;;;3.75;;
56667;SDS011;42542;48.360;10.958;2022-07-04T00:40:52;7.43;;;3.70;;
56667;SDS011;42542;48.360;10.958;2022-07-04T00:44:04;8.83;;;4.00;;
56667;SDS011;42542;48.360;10.958;2022-07-04T00:47:13;6.53;;;3.57;;
56667;SDS011;42542;48.360;10.958;2022-07-04T00:50:14;8.30;;;3.50;;
56667;SDS011;42542;48.360;10.958;2022-07-04T00:53:18;8.27;;;4.10;;
56667;SDS011;42542;48.360;10.958;2022-07-04T00:56:21;8.00;;;4.00;;
56667;SDS011;42542;48.360;10.958;2022-07-04T00:59:24;8.87;;;3.87;;
56667;SDS011;42542;48.360;10.958;2022-07-04T01:02:26;9.40;;;4.00;;
56667;SDS011;42542;48.360;10.958;2022-07-04T01:05:27;8.23;;;3.90;;
56667;SDS011;42542;48.360;10.958;2022-07-04T01:08:29;6.90;;;3.80;;
56667;SDS011;42542;48.360;10.958;2022-07-04T01:11:32;9.15;;;4.15;;
56667;SDS011;42542;48.360;10.958;2022-07-04T01:14:37;8.40;;;4.00;;
56667;SDS011;42542;48.360;10.958;2022-07-04T01:17:40;8.57;;;4.07;;
56667;SDS011;42542;48.360;10.958;2022-07-04T01:20:41;6.70;;;3.78;;
56667;SDS011;42542;48.360;10.958;2022-07-04T01:23:44;7.55;;;4.00;;
56667;SDS011;42542;48.360;10.958;2022-07-04T01:26:46;7.55;;;4.10;;
56667;SDS011;42542;48.360;10.958;2022-07-04T01:29:48;7.37;;;4.20;;
56667;SDS011;42542;48.360;10.958;2022-07-04T01:32:50;6.77;;;4.13;;
56667;SDS011;42542;48.360;10.958;2022-07-04T01:35:52;8.50;;;3.88;;
56667;SDS011;42542;48.360;10.958;2022-07-04T01:38:54;8.18;;;3.90;;
56667;SDS011;42542;48.360;10.958;2022-07-04T01:41:57;7.85;;;4.10;;
56667;SDS011;42542;48.360;10.958;2022-07-04T01:44:59;9.37;;;4.10;;
56667;SDS011;42542;48.360;10.958;2022-07-04T01:48:01;9.13;;;4.03;;
56667;SDS011;42542;48.360;10.958;2022-07-04T01:51:03;7.18;;;4.03;;
56667;SDS011;42542;48.360;10.958;2022-07-04T01:54:04;8.85;;;4.07;;
56667;SDS011;42542;48.360;10.958;2022-07-04T01:57:09;7.07;;;3.90;;
56667;SDS011;42542;48.360;10.958;2022-07-04T02:00:11;9.30;;;3.97;;
56667;SDS011;42542;48.360;10.958;2022-07-04T02:03:31;8.07;;;4.10;;
56667;SDS011;42542;48.360;10.958;2022-07-04T02:06:33;7.68;;;4.07;;
56667;SDS011;42542;48.360;10.958;2022-07-04T02:09:36;7.13;;;4.20;;
56667;SDS011;42542;48.360;10.958;2022-07-04T02:12:37;8.20;;;4.60;;
56667;SDS011;42542;48.360;10.958;2022-07-04T02:15:58;8.60;;;4.10;;
56667;SDS011;42542;48.360;10.958;2022-07-04T02:18:59;10.48;;;4.60;;
56667;SDS011;42542;48.360;10.958;2022-07-04T02:22:01;9.15;;;4.20;;
56667;SDS011;42542;48.360;10.958;2022-07-04T02:25:04;7.63;;;4.30;;
56667;SDS011;42542;48.360;10.958;2022-07-04T02:28:06;9.20;;;4.45;;
56667;SDS011;42542;48.360;10.958;2022-07-04T02:31:07;8.60;;;4.53;;
56667;SDS011;42542;48.360;10.958;2022-07-04T02:34:09;7.33;;;4.50;;
56667;SDS011;42542;48.360;10.958;2022-07-04T02:37:11;9.32;;;4.40;;
56667;SDS011;42542;48.360;10.958;2022-07-04T02:40:13;8.90;;;4.35;;
56667;SDS011;42542;48.360;10.958;2022-07-04T02:43:15;7.57;;;4.50;;
56667;SDS011;42542;48.360;10.958;2022-07-04T02:46:16;9.13;;;4.60;;
56667;SDS011;42542;48.360;10.958;2022-07-04T02:49:19;8.30;;;4.60;;
56667;SDS011;42542;48.360;10.958;2022-07-04T02:52:21;8.52;;;4.25;;
56667;SDS011;42542;48.360;10.958;2022-07-04T02:55:23;8.93;;;4.55;;
56667;SDS011;42542;48.360;10.958;2022-07-04T02:58:25;8.52;;;4.47;;
56667;SDS011;42542;48.360;10.958;2022-07-04T03:01:26;8.37;;;4.50;;
56667;SDS011;42542;48.360;10.958;2022-07-04T03:04:28;8.13;;;4.50;;
56667;SDS011;42542;48.360;10.958;2022-07-04T03:07:30;8.27;;;4.50;;
56667;SDS011;42542;48.360;10.958;2022-07-04T03:10:32;8.85;;;4.70;;
56667;SDS011;42542;48.360;10.958;2022-07-04T03:13:35;9.02;;;4.80;;
56667;SDS011;42542;48.360;10.958;2022-07-04T03:16:37;7.10;;;4.00;;
56667;SDS011;42542;48.360;10.958;2022-07-04T03:19:39;9.25;;;4.00;;
56667;SDS011;42542;48.360;10.958;2022-07-04T03:22:41;9.68;;;4.40;;
56667;SDS011;42542;48.360;10.958;2022-07-04T03:25:43;7.07;;;3.92;;
56667;SDS011;42542;48.360;10.958;2022-07-04T03:28:44;8.10;;;4.50;;
56667;SDS011;42542;48.360;10.958;2022-07-04T03:31:49;9.60;;;4.20;;
56667;SDS011;42542;48.360;10.958;2022-07-04T03:34:51;11.30;;;4.37;;
56667;SDS011;42542;48.360;10.958;2022-07-04T03:37:52;8.07;;;4.50;;
56667;SDS011;42542;48.360;10.958;2022-07-04T03:40:54;8.50;;;4.50;;
56667;SDS011;42542;48.360;10.958;2022-07-04T03:43:56;8.43;;;4.60;;
56667;SDS011;42542;48.360;10.958;2022-07-04T03:46:58;8.37;;;4.67;;
56667;SDS011;42542;48.360;10.958;2022-07-04T03:50:00;8.40;;;4.65;;
56667;SDS011;42542;48.360;10.958;2022-07-04T03:53:02;8.57;;;4.93;;
56667;SDS011;42542;48.360;10.958;2022-07-04T03:56:04;10.25;;;4.90;;
56667;SDS011;42542;48.360;10.958;2022-07-04T03:59:06;11.07;;;4.72;;
56667;SDS011;42542;48.360;10.958;2022-07-04T04:02:08;9.37;;;5.20;;
56667;SDS011;42542;48.360;10.958;2022-07-04T04:05:11;8.00;;;4.90;;
56667;SDS011;42542;48.360;10.958;2022-07-04T04:08:54;8.05;;;4.70;;
56667;SDS011;42542;48.360;10.958;2022-07-04T04:22:30;10.57;;;4.63;;
56667;SDS011;42542;48.360;10.958;2022-07-04T04:25:42;9.32;;;4.90;;
56667;SDS011;42542;48.360;10.958;2022-07-04T04:28:58;11.73;;;4.70;;
56667;SDS011;42542;48.360;10.958;2022-07-04T04:36:00;8.90;;;4.72;;
56667;SDS011;42542;48.360;10.958;2022-07-04T04:39:25;10.93;;;4.60;;
56667;SDS011;42542;48.360;10.958;2022-07-04T04:42:27;8.32;;;4.25;;
56667;SDS011;42542;48.360;10.958;2022-07-04T04:45:29;9.23;;;4.47;;
56667;SDS011;42542;48.360;10.958;2022-07-04T04:48:31;8.70;;;4.75;;
56667;SDS011;42542;48.360;10.958;2022-07-04T04:51:33;8.43;;;4.35;;
56667;SDS011;42542;48.360;10.958;2022-07-04T04:54:35;8.63;;;4.20;;
56667;SDS011;42542;48.360;10.958;2022-07-04T04:57:37;12.60;;;6.13;;
56667;SDS011;42542;48.360;10.958;2022-07-04T05:00:39;13.77;;;6.75;;
56667;SDS011;42542;48.360;10.958;2022-07-04T05:04:02;12.77;;;6.95;;
56667;SDS011;42542;48.360;10.958;2022-07-04T05:07:11;9.20;;;5.20;;
56667;SDS011;42542;48.360;10.958;2022-07-04T05:10:18;10.13;;;4.40;;
56667;SDS011;42542;48.360;10.958;2022-07-04T05:13:21;8.97;;;4.23;;
56667;SDS011;42542;48.360;10.958;2022-07-04T05:16:25;10.30;;;4.47;;
56667;SDS011;42542;48.360;10.958;2022-07-04T05:19:33;8.38;;;4.13;;
56667;SDS011;42542;48.360;10.958;2022-07-04T05:22:44;7.85;;;3.97;;
56667;SDS011;42542;48.360;10.958;2022-07-04T05:25:47;10.73;;;3.90;;
56667;SDS011;42542;48.360;10.958;2022-07-04T05:28:50;8.00;;;3.90;;
56667;SDS011;42542;48.360;10.958;2022-07-04T05:32:16;8.02;;;4.00;;
56667;SDS011;42542;48.360;10.958;2022-07-04T05:35:27;7.65;;;3.85;;
56667;SDS011;42542;48.360;10.958;2022-07-04T05:38:42;6.80;;;3.78;;
56667;SDS011;42542;48.360;10.958;2022-07-04T05:41:59;8.07;;;4.03;;
56667;SDS011;42542;48.360;10.958;2022-07-04T05:45:28;7.80;;;4.03;;
56667;SDS011;42542;48.360;10.958;2022-07-04T05:48:49;7.45;;;3.60;;
56667;SDS011;42542;48.360;10.958;2022-07-04T05:56:56;7.80;;;3.47;;
56667;SDS011;42542;48.360;10.958;2022-07-04T06:01:06;8.47;;;3.80;;
56667;SDS011;42542;48.360;10.958;2022-07-04T06:04:16;7.10;;;3.40;;
56667;SDS011;42542;48.360;10.958;2022-07-04T06:07:19;8.05;;;3.85;;
56667;SDS011;42542;48.360;10.958;2022-07-04T06:10:21;6.70;;;3.60;;
56667;SDS011;42542;48.360;10.958;2022-07-04T06:13:29;7.45;;;3.85;;
56667;SDS011;42542;48.360;10.958;2022-07-04T06:16:50;7.73;;;3.87;;
56667;SDS011;42542;48.360;10.958;2022-07-04T06:19:57;6.50;;;3.50;;
56667;SDS011;42542;48.360;10.958;2022-07-04T06:23:01;9.32;;;3.60;;
56667;SDS011;42542;48.360;10.958;2022-07-04T06:26:15;7.25;;;3.58;;
56667;SDS011;42542;48.360;10.958;2022-07-04T06:30:13;6.85;;;3.50;;
56667;SDS011;42542;48.360;10.958;2022-07-04T06:33:53;7.60;;;3.57;;
56667;SDS011;42542;48.360;10.958;2022-07-04T06:38:02;7.03;;;3.87;;
56667;SDS011;42542;48.360;10.958;2022-07-04T06:42:11;7.32;;;3.38;;
56667;SDS011;42542;48.360;10.958;2022-07-04T06:46:02;7.30;;;3.35;;
56667;SDS011;42542;48.360;10.958;2022-07-04T06:49:52;6.63;;;3.30;;
56667;SDS011;42542;48.360;10.958;2022-07-04T06:59:33;7.90;;;3.30;;
56667;SDS011;42542;48.360;10.958;2022-07-04T07:02:59;7.82;;;3.00;;
56667;SDS011;42542;48.360;10.958;2022-07-04T07:16:10;6.57;;;2.80;;
56667;SDS011;42542;48.360;10.958;2022-07-04T07:20:07;6.27;;;2.80;;
56667;SDS011;42542;48.360;10.958;2022-07-04T07:24:51;6.97;;;2.90;;
56667;SDS011;42542;48.360;10.958;2022-07-04T07:29:30;5.82;;;2.80;;
56667;SDS011;42542;48.360;10.958;2022-07-04T07:44:01;6.27;;;2.50;;
56667;SDS011;42542;48.360;10.958;2022-07-04T08:02:51;6.50;;;2.67;;
56667;SDS011;42542;48.360;10.958;2022-07-04T08:07:18;5.37;;;2.30;;
56667;SDS011;42542;48.360;10.958;2022-07-04T08:21:02;7.47;;;2.80;;
56667;SDS011;42542;48.360;10.958;2022-07-04T08:24:38;6.83;;;2.60;;
56667;SDS011;42542;48.360;10.958;2022-07-04T08:32:20;6.93;;;2.60;;
56667;SDS011;42542;48.360;10.958;2022-07-04T08:55:45;5.68;;;2.80;;
56667;SDS011;42542;48.360;10.958;2022-07-04T09:00:07;7.80;;;2.70;;
56667;SDS011;42542;48.360;10.958;2022-07-04T09:14:23;7.67;;;3.20;;
56667;SDS011;42542;48.360;10.958;2022-07-04T09:18:29;6.60;;;3.17;;
56667;SDS011;42542;48.360;10.958;2022-07-04T09:32:50;6.10;;;2.80;;
56667;SDS011;42542;48.360;10.958;2022-07-04T10:07:52;5.72;;;2.33;;
56667;SDS011;42542;48.360;10.958;2022-07-04T10:11:13;6.53;;;2.40;;
56667;SDS011;42542;48.360;10.958;2022-07-04T10:15:34;5.50;;;2.25;;
56667;SDS011;42542;48.360;10.958;2022-07-04T10:24:38;7.60;;;2.50;;
56667;SDS011;42542;48.360;10.958;2022-07-04T10:29:20;5.25;;;2.63;;
56667;SDS011;42542;48.360;10.958;2022-07-04T10:33:33;5.68;;;2.38;;
56667;SDS011;42542;48.360;10.958;2022-07-04T10:37:57;5.45;;;2.30;;
56667;SDS011;42542;48.360;10.958;2022-07-04T10:47:05;5.23;;;2.33;;
56667;SDS011;42542;48.360;10.958;2022-07-04T10:51:13;6.57;;;2.63;;
56667;SDS011;42542;48.360;10.958;2022-07-04T10:55:44;5.40;;;2.63;;
56667;SDS011;42542;48.360;10.958;2022-07-04T11:05:30;6.33;;;2.50;;
56667;SDS011;42542;48.360;10.958;2022-07-04T11:23:40;6.35;;;2.60;;
56667;SDS011;42542;48.360;10.958;2022-07-04T11:33:00;5.17;;;2.50;;
56667;SDS011;42542;48.360;10.958;2022-07-04T11:36:50;5.32;;;2.40;;
56667;SDS011;42542;48.360;10.958;2022-07-04T11:49:54;7.30;;;2.60;;
56667;SDS011;42542;48.360;10.958;2022-07-04T11:53:50;5.67;;;2.30;;
56667;SDS011;42542;48.360;10.958;2022-07-04T11:58:20;6.60;;;2.38;;
56667;SDS011;42542;48.360;10.958;2022-07-04T12:07:44;6.28;;;2.60;;
56667;SDS011;42542;48.360;10.958;2022-07-04T12:20:39;5.70;;;2.80;;
56667;SDS011;42542;48.360;10.958;2022-07-04T12:24:26;6.60;;;2.70;;
56667;SDS011;42542;48.360;10.958;2022-07-04T12:32:43;6.10;;;2.77;;
56667;SDS011;42542;48.360;10.958;2022-07-04T12:35:47;6.53;;;2.60;;
56667;SDS011;42542;48.360;10.958;2022-07-04T12:39:09;5.45;;;2.70;;
56667;SDS011;42542;48.360;10.958;2022-07-04T12:43:03;6.45;;;2.53;;
56667;SDS011;42542;48.360;10.958;2022-07-04T13:02:13;6.32;;;2.70;;
56667;SDS011;42542;48.360;10.958;2022-07-04T13:06:38;6.18;;;2.60;;
56667;SDS011;42542;48.360;10.958;2022-07-04T13:48:19;4.95;;;2.22;;
56667;SDS011;42542;48.360;10.958;2022-07-04T13:51:21;6.00;;;2.38;;
56667;SDS011;42542;48.360;10.958;2022-07-04T13:54:25;5.88;;;2.50;;
56667;SDS011;42542;48.360;10.958;2022-07-04T14:02:17;5.30;;;2.40;;
56667;SDS011;42542;48.360;10.958;2022-07-04T14:06:49;5.13;;;2.25;;
56667;SDS011;42542;48.360;10.958;2022-07-04T14:15:22;6.95;;;2.63;;
56667;SDS011;42542;48.360;10.958;2022-07-04T14:20:56;5.90;;;2.80;;
56667;SDS011;42542;48.360;10.958;2022-07-04T14:39:38;5.68;;;3.00;;
56667;SDS011;42542;48.360;10.958;2022-07-04T14:43:13;7.60;;;2.90;;
56667;SDS011;42542;48.360;10.958;2022-07-04T14:52:22;7.82;;;3.20;;
56667;SDS011;42542;48.360;10.958;2022-07-04T14:55:24;7.10;;;2.90;;
56667;SDS011;42542;48.360;10.958;2022-07-04T14:58:25;6.25;;;3.00;;
56667;SDS011;42542;48.360;10.958;2022-07-04T15:01:27;6.47;;;3.20;;
56667;SDS011;42542;48.360;10.958;2022-07-04T15:04:39;7.07;;;2.90;;
56667;SDS011;42542;48.360;10.958;2022-07-04T15:08:02;6.38;;;2.80;;
56667;SDS011;42542;48.360;10.958;2022-07-04T15:11:12;6.05;;;2.85;;
56667;SDS011;42542;48.360;10.958;2022-07-04T15:14:20;7.93;;;2.90;;
56667;SDS011;42542;48.360;10.958;2022-07-04T15:17:22;6.10;;;3.10;;
56667;SDS011;42542;48.360;10.958;2022-07-04T15:20:25;8.40;;;3.13;;
56667;SDS011;42542;48.360;10.958;2022-07-04T15:23:46;7.05;;;3.20;;
56667;SDS011;42542;48.360;10.958;2022-07-04T15:27:06;7.72;;;3.13;;
56667;SDS011;42542;48.360;10.958;2022-07-04T15:30:08;6.30;;;3.08;;
56667;SDS011;42542;48.360;10.958;2022-07-04T15:33:13;8.97;;;3.27;;
56667;SDS011;42542;48.360;10.958;2022-07-04T15:36:18;6.37;;;2.83;;
56667;SDS011;42542;48.360;10.958;2022-07-04T15:39:27;8.15;;;3.42;;
56667;SDS011;42542;48.360;10.958;2022-07-04T15:42:40;6.07;;;2.95;;
56667;SDS011;42542;48.360;10.958;2022-07-04T16:13:14;8.60;;;3.43;;
56667;SDS011;42542;48.360;10.958;2022-07-04T16:21:23;7.30;;;3.20;;
56667;SDS011;42542;48.360;10.958;2022-07-04T16:25:10;7.88;;;3.40;;
56667;SDS011;42542;48.360;10.958;2022-07-04T16:29:04;9.32;;;3.35;;
56667;SDS011;42542;48.360;10.958;2022-07-04T16:32:31;6.43;;;3.40;;
56667;SDS011;42542;48.360;10.958;2022-07-04T16:52:19;6.93;;;3.50;;
56667;SDS011;42542;48.360;10.958;2022-07-04T16:55:38;7.00;;;3.63;;
56667;SDS011;42542;48.360;10.958;2022-07-04T17:09:25;7.07;;;3.60;;
56667;SDS011;42542;48.360;10.958;2022-07-04T17:13:17;6.70;;;3.30;;
56667;SDS011;42542;48.360;10.958;2022-07-04T17:16:44;9.30;;;3.60;;
56667;SDS011;42542;48.360;10.958;2022-07-04T17:20:44;9.38;;;3.70;;
56667;SDS011;42542;48.360;10.958;2022-07-04T17:28:13;7.38;;;3.50;;
56667;SDS011;42542;48.360;10.958;2022-07-04T17:36:14;12.53;;;3.83;;
56667;SDS011;42542;48.360;10.958;2022-07-04T17:39:40;8.20;;;3.50;;
56667;SDS011;42542;48.360;10.958;2022-07-04T17:42:57;6.80;;;3.53;;
56667;SDS011;42542;48.360;10.958;2022-07-04T17:46:13;6.93;;;3.47;;
56667;SDS011;42542;48.360;10.958;2022-07-04T17:50:20;7.87;;;4.00;;
56667;SDS011;42542;48.360;10.958;2022-07-04T17:53:29;7.50;;;3.63;;
56667;SDS011;42542;48.360;10.958;2022-07-04T17:57:02;7.85;;;4.50;;
56667;SDS011;42542;48.360;10.958;2022-07-04T18:00:09;9.35;;;4.10;;
56667;SDS011;42542;48.360;10.958;2022-07-04T18:03:17;8.13;;;3.95;;
56667;SDS011;42542;48.360;10.958;2022-07-04T18:06:22;8.20;;;4.10;;
56667;SDS011;42542;48.360;10.958;2022-07-04T18:09:30;7.80;;;3.97;;
56667;SDS011;42542;48.360;10.958;2022-07-04T18:12:57;7.57;;;3.88;;
56667;SDS011;42542;48.360;10.958;2022-07-04T18:15:59;6.75;;;3.80;;
56667;SDS011;42542;48.360;10.958;2022-07-04T18:19:44;7.57;;;3.90;;
56667;SDS011;42542;48.360;10.958;2022-07-04T18:28:00;10.80;;;4.30;;
56667;SDS011;42542;48.360;10.958;2022-07-04T18:31:52;8.13;;;4.00;;
56667;SDS011;42542;48.360;10.958;2022-07-04T18:35:32;8.13;;;4.40;;
56667;SDS011;42542;48.360;10.958;2022-07-04T18:39:40;8.10;;;4.40;;
56667;SDS011;42542;48.360;10.958;2022-07-04T18:43:13;8.07;;;4.50;;
56667;SDS011;42542;48.360;10.958;2022-07-04T18:46:59;9.67;;;5.77;;
56667;SDS011;42542;48.360;10.958;2022-07-04T18:50:38;11.77;;;6.38;;
56667;SDS011;42542;48.360;10.958;2022-07-04T18:54:00;11.15;;;6.70;;
56667;SDS011;42542;48.360;10.958;2022-07-04T18:57:24;12.90;;;6.10;;
56667;SDS011;42542;48.360;10.958;2022-07-04T19:00:58;9.30;;;6.17;;
56667;SDS011;42542;48.360;10.958;2022-07-04T19:09:33;10.35;;;5.00;;
56667;SDS011;42542;48.360;10.958;2022-07-04T19:14:38;8.38;;;5.22;;
56667;SDS011;42542;48.360;10.958;2022-07-04T19:22:28;8.83;;;5.17;;
56667;SDS011;42542;48.360;10.958;2022-07-04T19:25:33;8.33;;;5.27;;
56667;SDS011;42542;48.360;10.958;2022-07-04T19:28:55;7.80;;;4.80;;
56667;SDS011;42542;48.360;10.958;2022-07-04T19:32:05;10.55;;;5.10;;
56667;SDS011;42542;48.360;10.958;2022-07-04T19:48:35;8.68;;;5.20;;
56667;SDS011;42542;48.360;10.958;2022-07-04T19:51:42;9.35;;;5.53;;
56667;SDS011;42542;48.360;10.958;2022-07-04T19:55:16;9.55;;;5.47;;
56667;SDS011;42542;48.360;10.958;2022-07-04T19:58:29;9.20;;;5.23;;
56667;SDS011;42542;48.360;10.958;2022-07-04T20:01:38;9.70;;;5.53;;
56667;SDS011;42542;48.360;10.958;2022-07-04T20:04:40;8.85;;;5.72;;
56667;SDS011;42542;48.360;10.958;2022-07-04T20:07:47;10.05;;;5.85;;
56667;SDS011;42542;48.360;10.958;2022-07-04T20:10:57;9.45;;;5.47;;
56667;SDS011;42542;48.360;10.958;2022-07-04T20:14:51;10.33;;;5.70;;
56667;SDS011;42542;48.360;10.958;2022-07-04T20:17:53;11.20;;;5.60;;
56667;SDS011;42542;48.360;10.958;2022-07-04T20:25:04;8.40;;;5.35;;
56667;SDS011;42542;48.360;10.958;2022-07-04T20:32:35;10.47;;;5.40;;
56667;SDS011;42542;48.360;10.958;2022-07-04T20:36:27;9.53;;;5.30;;
56667;SDS011;42542;48.360;10.958;2022-07-04T21:52:19;6.68;;;3.55;;
56667;SDS011;42542;48.360;10.958;2022-07-04T21:55:34;10.90;;;3.55;;
56667;SDS011;42542;48.360;10.958;2022-07-04T21:58:47;7.03;;;3.60;;
56667;SDS011;42542;48.360;10.958;2022-07-04T22:02:42;7.53;;;3.65;;
56667;SDS011;42542;48.360;10.958;2022-07-04T22:06:24;7.40;;;3.37;;
56667;SDS011;42542;48.360;10.958;2022-07-04T22:09:59;7.93;;;3.67;;
56667;SDS011;42542;48.360;10.958;2022-07-04T22:13:26;7.30;;;3.60;;
56667;SDS011;42542;48.360;10.958;2022-07-04T22:16:55;8.02;;;3.58;;
56667;SDS011;42542;48.360;10.958;2022-07-04T22:20:02;7.70;;;3.80;;
56667;SDS011;42542;48.360;10.958;2022-07-04T22:23:40;6.93;;;3.60;;
56667;SDS011;42542;48.360;10.958;2022-07-04T22:26:42;6.40;;;3.77;;
56667;SDS011;42542;48.360;10.958;2022-07-04T22:29:51;6.97;;;3.40;;
56667;SDS011;42542;48.360;10.958;2022-07-04T22:33:07;7.00;;;3.40;;
56667;SDS011;42542;48.360;10.958;2022-07-04T22:36:27;7.45;;;3.67;;
56667;SDS011;42542;48.360;10.958;2022-07-04T22:39:50;7.23;;;3.40;;
56667;SDS011;42542;48.360;10.958;2022-07-04T22:42:52;6.80;;;3.60;;
56667;SDS011;42542;48.360;10.958;2022-07-04T22:49:46;8.32;;;3.75;;
56667;SDS011;42542;48.360;10.958;2022-07-04T22:52:54;8.27;;;3.70;;
56667;SDS011;42542;48.360;10.958;2022-07-04T22:57:25;7.63;;;3.57;;
56667;SDS011;42542;48.360;10.958;2022-07-04T23:01:44;6.83;;;3.50;;
56667;SDS011;42542;48.360;10.958;2022-07-04T23:05:05;8.10;;;3.97;;
56667;SDS011;42542;48.360;10.958;2022-07-04T23:12:43;8.77;;;3.97;;
56667;SDS011;42542;48.360;10.958;2022-07-04T23:16:56;8.80;;;4.07;;
56667;SDS011;42542;48.360;10.958;2022-07-04T23:20:20;9.37;;;4.60;;
56667;SDS011;42542;48.360;10.958;2022-07-04T23:24:22;9.35;;;4.60;;
56667;SDS011;42542;48.360;10.958;2022-07-04T23:27:50;9.13;;;4.90;;
56667;SDS011;42542;48.360;10.958;2022-07-04T23:32:13;8.77;;;4.70;;
56667;SDS011;42542;48.360;10.958;2022-07-04T23:40:35;9.17;;;5.40;;
56667;SDS011;42542;48.360;10.958;2022-07-04T23:44:59;10.45;;;5.28;;
56667;SDS011;42542;48.360;10.958;2022-07-04T23:48:25;11.93;;;5.40;;
56667;SDS011;42542;48.360;10.958;2022-07-04T23:51:35;8.93;;;5.20;;
56667;SDS011;42542;48.360;10.958;2022-07-04T23:54:41;8.90;;;5.50;;
56667;SDS011;42542;48.360;10.958;2022-07-04T23:57:57;10.85;;;5.30;;
